createdAt,value
2018-09-17T00:01:23.644Z,101336.23
2018-09-17T00:03:51.967Z,101332.77
2018-09-17T00:06:20.283Z,101332.90
2018-09-17T00:08:48.735Z,101331.55
2018-09-17T00:11:17.050Z,101332.83
2018-09-17T00:13:45.383Z,101341.05
2018-09-17T00:16:13.874Z,101347.33
2018-09-17T00:18:42.166Z,101342.17
2018-09-17T00:21:10.480Z,101335.03
2018-09-17T00:23:38.849Z,101338.80
2018-09-17T00:26:07.189Z,101336.95
2018-09-17T00:28:35.510Z,101334.76
2018-09-17T00:31:03.835Z,101325.31
2018-09-17T00:33:32.178Z,101324.81
2018-09-17T00:36:00.475Z,101321.51
2018-09-17T00:38:28.788Z,101334.64
2018-09-17T00:40:57.098Z,101339.10
2018-09-17T00:43:25.409Z,101340.42
2018-09-17T00:45:53.727Z,101337.78
2018-09-17T00:48:22.016Z,101338.14
2018-09-17T00:50:50.325Z,101340.13
2018-09-17T00:53:18.736Z,101338.27
2018-09-17T00:55:47.038Z,101340.72
2018-09-17T00:58:15.318Z,101336.22
2018-09-17T01:00:43.923Z,101338.33
2018-09-17T01:03:12.336Z,101340.79
2018-09-17T01:05:40.623Z,101346.53
2018-09-17T01:08:08.943Z,101345.70
2018-09-17T01:10:37.293Z,101334.27
2018-09-17T01:13:05.565Z,101333.37
2018-09-17T01:15:33.874Z,101333.69
2018-09-17T01:18:02.178Z,101337.11
2018-09-17T01:20:30.537Z,101339.18
2018-09-17T01:22:58.809Z,101342.97
2018-09-17T01:25:27.082Z,101336.86
2018-09-17T01:27:55.390Z,101339.78
2018-09-17T01:30:30.133Z,101340.56
2018-09-17T01:32:58.417Z,101339.53
2018-09-17T01:35:26.717Z,101340.98
2018-09-17T01:37:55.044Z,101339.66
2018-09-17T01:40:23.341Z,101339.94
2018-09-17T01:42:51.694Z,101348.64
2018-09-17T01:45:20.010Z,101343.52
2018-09-17T01:47:48.291Z,101337.88
2018-09-17T01:50:16.580Z,101331.77
2018-09-17T01:52:44.918Z,101325.98
2018-09-17T01:55:13.227Z,101325.11
2018-09-17T01:57:41.502Z,101332.13
2018-09-17T02:00:09.794Z,101327.62
2018-09-17T02:02:38.068Z,101327.41
2018-09-17T02:05:06.545Z,101327.08
2018-09-17T02:07:34.881Z,101331.98
2018-09-17T02:10:03.355Z,101322.95
2018-09-17T02:12:31.585Z,101324.16
2018-09-17T02:14:59.865Z,101317.68
2018-09-17T02:17:29.057Z,101318.88
2018-09-17T02:19:57.337Z,101309.81
2018-09-17T02:22:25.660Z,101308.66
2018-09-17T02:24:54.143Z,101311.42
2018-09-17T02:27:22.505Z,101309.92
2018-09-17T02:29:57.596Z,101303.16
2018-09-17T02:32:25.986Z,101292.48
2018-09-17T02:34:54.330Z,101293.80
2018-09-17T02:37:22.633Z,101296.47
2018-09-17T02:39:51.167Z,101307.43
2018-09-17T02:42:19.453Z,101311.67
2018-09-17T02:44:47.747Z,101309.03
2018-09-17T02:47:16.082Z,101311.95
2018-09-17T02:49:44.399Z,101319.19
2018-09-17T02:52:12.686Z,101328.55
2018-09-17T02:54:40.969Z,101328.86
2018-09-17T02:57:09.252Z,101327.05
2018-09-17T02:59:37.546Z,101329.81
2018-09-17T03:02:06.056Z,101325.80
2018-09-17T03:04:34.353Z,101322.61
2018-09-17T03:07:02.704Z,101315.80
2018-09-17T03:09:31.007Z,101320.03
2018-09-17T03:11:59.349Z,101327.61
2018-09-17T03:14:29.402Z,101331.91
2018-09-17T03:17:15.655Z,101330.95
2018-09-17T03:19:44.974Z,101328.31
2018-09-17T03:22:14.163Z,101333.10
2018-09-17T03:24:42.511Z,101343.59
2018-09-17T03:27:10.827Z,101346.63
2018-09-17T03:29:39.206Z,101340.67
2018-09-17T03:32:07.506Z,101338.37
2018-09-17T03:34:35.769Z,101335.41
2018-09-17T03:37:04.102Z,101333.05
2018-09-17T03:39:32.425Z,101330.19
2018-09-17T03:42:00.778Z,101328.05
2018-09-17T03:44:29.091Z,101340.25
2018-09-17T03:46:57.394Z,101343.71
2018-09-17T03:49:25.714Z,101351.50
2018-09-17T03:51:54.049Z,101346.56
2018-09-17T03:54:22.307Z,101340.31
2018-09-17T03:56:50.640Z,101339.48
2018-09-17T03:59:18.957Z,101343.38
2018-09-17T04:01:47.284Z,101336.56
2018-09-17T04:04:22.833Z,101341.28
2018-09-17T04:06:51.193Z,101339.75
2018-09-17T04:09:19.496Z,101327.77
2018-09-17T04:11:47.870Z,101330.73
2018-09-17T04:14:16.195Z,101330.52
2018-09-17T04:16:44.511Z,101330.34
2018-09-17T04:19:12.872Z,101337.88
2018-09-17T04:21:41.165Z,101321.02
2018-09-17T04:24:09.472Z,101322.83
2018-09-17T04:26:37.757Z,101321.66
2018-09-17T04:29:06.222Z,101308.75
2018-09-17T04:31:34.514Z,101323.38
2018-09-17T04:34:02.855Z,101327.33
2018-09-17T04:36:31.194Z,101327.20
2018-09-17T04:38:59.525Z,101327.05
2018-09-17T04:41:27.832Z,101336.16
2018-09-17T04:43:56.155Z,101335.67
2018-09-17T04:46:24.485Z,101338.91
2018-09-17T04:48:52.802Z,101337.87
2018-09-17T04:51:21.231Z,101338.36
2018-09-17T04:53:49.561Z,101328.80
2018-09-17T04:56:17.902Z,101332.87
2018-09-17T04:58:46.202Z,101337.47
2018-09-17T05:01:14.493Z,101339.77
2018-09-17T05:03:42.781Z,101350.70
2018-09-17T05:06:11.053Z,101343.70
2018-09-17T05:08:39.348Z,101337.20
2018-09-17T05:11:07.663Z,101343.58
2018-09-17T05:13:35.996Z,101345.78
2018-09-17T05:16:04.421Z,101350.93
2018-09-17T05:18:32.761Z,101345.38
2018-09-17T05:21:01.049Z,101343.91
2018-09-17T05:23:29.354Z,101349.06
2018-09-17T05:25:57.658Z,101353.51
2018-09-17T05:28:25.961Z,101356.33
2018-09-17T05:30:54.263Z,101362.59
2018-09-17T05:33:22.537Z,101367.10
2018-09-17T05:35:50.946Z,101368.98
2018-09-17T05:38:19.671Z,101373.15
2018-09-17T05:40:47.951Z,101374.66
2018-09-17T05:43:16.257Z,101378.70
2018-09-17T05:45:44.571Z,101379.66
2018-09-17T05:48:12.935Z,101385.91
2018-09-17T05:50:41.244Z,101389.31
2018-09-17T05:53:09.644Z,101381.18
2018-09-17T05:55:37.943Z,101387.77
2018-09-17T05:58:06.314Z,101379.14
2018-09-17T06:00:34.634Z,101379.48
2018-09-17T06:03:02.910Z,101383.09
2018-09-17T06:05:35.004Z,101378.30
2018-09-17T06:08:03.309Z,101382.41
2018-09-17T06:10:31.634Z,101374.95
2018-09-17T06:12:59.917Z,101381.03
2018-09-17T06:15:28.263Z,101383.77
2018-09-17T06:17:56.519Z,101383.73
2018-09-17T06:20:24.853Z,101385.95
2018-09-17T06:22:53.190Z,101386.86
2018-09-17T06:25:21.524Z,101385.78
2018-09-17T06:27:49.847Z,101392.30
2018-09-17T06:30:18.151Z,101394.83
2018-09-17T06:32:46.445Z,101404.68
2018-09-17T06:35:14.775Z,101405.95
2018-09-17T06:37:49.527Z,101408.50
2018-09-17T06:40:17.811Z,101412.08
2018-09-17T06:42:46.150Z,101420.77
2018-09-17T06:45:14.485Z,101426.13
2018-09-17T06:47:42.867Z,101418.09
2018-09-17T06:50:11.165Z,101417.33
2018-09-17T06:52:39.733Z,101418.88
2018-09-17T06:55:08.294Z,101419.27
2018-09-17T06:57:36.614Z,101418.98
2018-09-17T07:00:05.208Z,101419.05
2018-09-17T07:02:33.545Z,101419.13
2018-09-17T07:05:01.887Z,101417.35
2018-09-17T07:07:30.197Z,101417.75
2018-09-17T07:09:58.497Z,101418.66
2018-09-17T07:12:26.777Z,101418.20
2018-09-17T07:14:55.268Z,101416.27
2018-09-17T07:17:23.549Z,101401.89
2018-09-17T07:19:51.941Z,101404.93
2018-09-17T07:22:20.258Z,101406.33
2018-09-17T07:24:48.560Z,101404.05
2018-09-17T07:27:16.857Z,101401.27
2018-09-17T07:29:45.394Z,101398.49
2018-09-17T07:32:13.697Z,101393.55
2018-09-17T07:34:42.081Z,101397.22
2018-09-17T07:37:10.453Z,101403.03
2018-09-17T07:39:38.739Z,101391.95
2018-09-17T07:42:07.131Z,101396.60
2018-09-17T07:44:35.449Z,101394.27
2018-09-17T07:47:03.785Z,101395.11
2018-09-17T07:49:32.127Z,101395.78
2018-09-17T07:52:00.919Z,101397.95
2018-09-17T07:54:29.230Z,101393.80
2018-09-17T07:56:57.790Z,101395.64
2018-09-17T07:59:26.103Z,101397.12
2018-09-17T08:01:54.455Z,101400.23
2018-09-17T08:04:22.803Z,101400.55
2018-09-17T08:06:51.159Z,101399.68
2018-09-17T08:09:19.446Z,101403.11
2018-09-17T08:11:47.807Z,101392.73
2018-09-17T08:14:16.137Z,101401.34
2018-09-17T08:16:44.485Z,101394.56
2018-09-17T08:19:12.777Z,101393.83
2018-09-17T08:21:41.078Z,101390.91
2018-09-17T08:24:09.390Z,101378.80
2018-09-17T08:26:37.672Z,101381.17
2018-09-17T08:29:06.258Z,101378.73
2018-09-17T08:31:34.613Z,101375.33
2018-09-17T08:34:02.960Z,101376.72
2018-09-17T08:36:31.252Z,101379.48
2018-09-17T08:38:59.582Z,101379.44
2018-09-17T08:41:27.861Z,101374.70
2018-09-17T08:43:56.380Z,101372.45
2018-09-17T08:46:24.834Z,101377.77
2018-09-17T08:48:53.220Z,101372.97
2018-09-17T08:51:22.286Z,101375.87
2018-09-17T08:53:50.640Z,101369.80
2018-09-17T08:56:22.157Z,101378.76
2018-09-17T08:59:57.909Z,101378.08
2018-09-17T09:03:30.641Z,101374.08
2018-09-17T09:06:04.217Z,101374.84
2018-09-17T09:08:32.506Z,101373.13
2018-09-17T09:11:06.075Z,101369.61
2018-09-17T09:13:34.401Z,101371.02
2018-09-17T09:16:02.747Z,101367.23
2018-09-17T09:18:31.066Z,101363.02
2018-09-17T09:20:59.394Z,101362.64
2018-09-17T09:23:27.685Z,101362.22
2018-09-17T09:25:55.972Z,101356.78
2018-09-17T09:28:24.270Z,101362.91
2018-09-17T09:30:52.737Z,101357.66
2018-09-17T09:33:20.993Z,101360.84
2018-09-17T09:35:49.319Z,101357.36
2018-09-17T09:38:17.651Z,101350.88
2018-09-17T09:40:45.952Z,101348.20
2018-09-17T09:43:14.270Z,101346.02
2018-09-17T09:45:42.550Z,101349.34
2018-09-17T09:48:10.835Z,101346.45
2018-09-17T09:50:39.247Z,101352.67
2018-09-17T09:53:07.543Z,101343.74
2018-09-17T09:55:35.904Z,101343.66
2018-09-17T09:58:04.213Z,101336.19
2018-09-17T10:00:37.843Z,101336.92
2018-09-17T10:03:11.649Z,101332.05
2018-09-17T10:05:39.932Z,101331.77
2018-09-17T10:08:08.292Z,101327.91
2018-09-17T10:10:41.892Z,101321.73
2018-09-17T10:13:15.618Z,101326.91
2018-09-17T10:15:49.360Z,101323.64
2018-09-17T10:18:22.792Z,101316.77
2018-09-17T10:20:51.105Z,101319.56
2018-09-17T10:23:19.415Z,101322.66
2018-09-17T10:25:47.743Z,101315.79
2018-09-17T10:28:16.015Z,101316.83
2018-09-17T10:30:44.423Z,101316.19
2018-09-17T10:33:12.761Z,101312.58
2018-09-17T10:35:41.089Z,101316.59
2018-09-17T10:38:09.416Z,101312.58
2018-09-17T10:40:37.743Z,101309.89
2018-09-17T10:43:06.203Z,101314.03
2018-09-17T10:45:34.529Z,101305.48
2018-09-17T10:48:02.834Z,101303.11
2018-09-17T10:50:31.127Z,101300.37
2018-09-17T10:52:59.422Z,101296.55
2018-09-17T10:55:27.789Z,101293.99
2018-09-17T10:57:56.170Z,101289.06
2018-09-17T11:00:24.595Z,101284.52
2018-09-17T11:02:53.336Z,101288.32
2018-09-17T11:05:21.666Z,101287.62
2018-09-17T11:07:49.951Z,101285.76
2018-09-17T11:10:18.248Z,101285.59
2018-09-17T11:12:46.547Z,101284.67
2018-09-17T11:15:14.861Z,101278.17
2018-09-17T11:17:43.276Z,101273.53
2018-09-17T11:20:11.490Z,101274.37
2018-09-17T11:22:39.785Z,101270.84
2018-09-17T11:25:08.194Z,101269.50
2018-09-17T11:27:36.464Z,101263.87
2018-09-17T11:30:04.908Z,101263.05
2018-09-17T11:32:33.583Z,101268.41
2018-09-17T11:35:01.922Z,101266.84
2018-09-17T11:37:30.199Z,101270.05
2018-09-17T11:39:58.520Z,101264.08
2018-09-17T11:42:26.863Z,101260.87
2018-09-17T11:44:55.150Z,101264.26
2018-09-17T11:47:23.446Z,101260.77
2018-09-17T11:49:51.748Z,101253.44
2018-09-17T11:52:20.120Z,101253.77
2018-09-17T11:54:48.435Z,101245.70
2018-09-17T11:57:16.710Z,101252.41
2018-09-17T11:59:45.045Z,101255.38
2018-09-17T12:02:18.960Z,101245.23
2018-09-17T12:04:52.461Z,101256.27
2018-09-17T12:07:52.599Z,101249.83
2018-09-17T12:10:20.881Z,101247.63
2018-09-17T12:12:49.174Z,101243.64
2018-09-17T12:15:17.468Z,101241.48
2018-09-17T12:17:45.789Z,101241.77
2018-09-17T12:20:14.158Z,101237.19
2018-09-17T12:22:42.502Z,101238.06
2018-09-17T12:25:10.807Z,101228.17
2018-09-17T12:27:39.119Z,101232.00
2018-09-17T12:30:07.446Z,101226.11
2018-09-17T12:32:35.776Z,101226.24
2018-09-17T12:35:04.075Z,101217.47
2018-09-17T12:37:32.364Z,101218.33
2018-09-17T12:40:00.653Z,101215.84
2018-09-17T12:42:28.949Z,101214.73
2018-09-17T12:44:57.363Z,101214.41
2018-09-17T12:47:25.661Z,101214.50
2018-09-17T12:49:53.992Z,101214.30
2018-09-17T12:52:22.279Z,101210.27
2018-09-17T12:54:50.620Z,101203.56
2018-09-17T12:57:19.015Z,101197.05
2018-09-17T12:59:47.267Z,101188.17
2018-09-17T13:02:15.689Z,101187.56
2018-09-17T13:04:43.999Z,101180.74
2018-09-17T13:07:12.294Z,101178.50
2018-09-17T13:09:40.565Z,101177.05
2018-09-17T13:12:08.857Z,101181.23
2018-09-17T13:14:37.193Z,101178.93
2018-09-17T13:17:05.600Z,101182.14
2018-09-17T13:19:33.881Z,101175.86
2018-09-17T13:22:02.221Z,101180.50
2018-09-17T13:24:30.540Z,101177.59
2018-09-17T13:26:58.856Z,101171.11
2018-09-17T13:29:27.149Z,101168.80
2018-09-17T13:31:55.480Z,101163.44
2018-09-17T13:34:23.746Z,101160.61
2018-09-17T13:36:52.080Z,101159.50
2018-09-17T13:39:20.428Z,101153.55
2018-09-17T13:41:48.751Z,101150.21
2018-09-17T13:44:17.175Z,101151.73
2018-09-17T13:46:45.467Z,101151.29
2018-09-17T13:49:13.773Z,101149.42
2018-09-17T13:51:42.122Z,101138.32
2018-09-17T13:54:10.423Z,101133.48
2018-09-17T13:56:38.779Z,101132.34
2018-09-17T13:59:07.097Z,101137.72
2018-09-17T14:01:35.434Z,101126.84
2018-09-17T14:04:03.860Z,101129.65
2018-09-17T14:06:32.096Z,101126.75
2018-09-17T14:09:00.407Z,101118.25
2018-09-17T14:11:28.767Z,101120.50
2018-09-17T14:13:57.082Z,101122.28
2018-09-17T14:16:30.683Z,101116.09
2018-09-17T14:18:59.000Z,101118.25
2018-09-17T14:21:27.309Z,101110.85
2018-09-17T14:23:55.613Z,101111.52
2018-09-17T14:26:24.172Z,101107.06
2018-09-17T14:28:52.441Z,101101.89
2018-09-17T14:31:24.915Z,101103.98
2018-09-17T14:33:54.049Z,101096.08
2018-09-17T14:36:22.373Z,101095.71
2018-09-17T14:38:50.687Z,101098.02
2018-09-17T14:41:18.985Z,101090.55
2018-09-17T14:43:47.557Z,101090.18
2018-09-17T14:46:15.904Z,101089.49
2018-09-17T14:48:44.518Z,101086.31
2018-09-17T14:51:12.821Z,101080.94
2018-09-17T14:53:41.438Z,101077.19
2018-09-17T14:56:09.764Z,101074.71
2018-09-17T14:58:38.092Z,101077.84
2018-09-17T15:01:06.431Z,101066.80
2018-09-17T15:03:34.718Z,101066.19
2018-09-17T15:06:03.039Z,101061.55
2018-09-17T15:08:31.428Z,101058.57
2018-09-17T15:10:59.718Z,101056.46
2018-09-17T15:13:28.010Z,101057.52
2018-09-17T15:15:58.375Z,101047.45
2018-09-17T15:18:27.216Z,101049.41
2018-09-17T15:20:55.846Z,101043.72
2018-09-17T15:23:24.218Z,101045.59
2018-09-17T15:25:52.522Z,101040.37
2018-09-17T15:28:20.942Z,101032.59
2018-09-17T15:30:49.265Z,101042.45
2018-09-17T15:33:17.571Z,101039.31
2018-09-17T15:35:45.911Z,101041.43
2018-09-17T15:38:14.352Z,101035.28
2018-09-17T15:40:42.660Z,101035.69
2018-09-17T15:43:10.946Z,101035.90
2018-09-17T15:45:39.286Z,101033.21
2018-09-17T15:48:07.628Z,101028.97
2018-09-17T15:50:35.958Z,101024.94
2018-09-17T15:53:04.269Z,101025.75
2018-09-17T15:55:32.595Z,101026.05
2018-09-17T15:58:01.029Z,101015.00
2018-09-17T16:00:29.399Z,101015.74
2018-09-17T16:02:57.791Z,101008.45
2018-09-17T16:05:26.037Z,101005.28
2018-09-17T16:07:54.375Z,101008.28
2018-09-17T16:10:22.688Z,101009.47
2018-09-17T16:12:50.989Z,101013.42
2018-09-17T16:15:19.400Z,101011.27
2018-09-17T16:17:47.707Z,101012.61
2018-09-17T16:20:16.171Z,101007.19
2018-09-17T16:22:44.471Z,101008.09
2018-09-17T16:25:12.806Z,101001.81
2018-09-17T16:27:41.295Z,101006.58
2018-09-17T16:30:10.974Z,100998.68
2018-09-17T16:32:39.543Z,101003.58
2018-09-17T16:35:07.839Z,101000.23
2018-09-17T16:37:36.348Z,101000.30
2018-09-17T16:40:04.715Z,100999.85
2018-09-17T16:42:33.019Z,100997.77
2018-09-17T16:45:01.570Z,100996.78
2018-09-17T16:47:30.146Z,100998.52
2018-09-17T16:49:58.469Z,100995.28
2018-09-17T16:52:26.767Z,100992.90
2018-09-17T16:54:55.093Z,100999.34
2018-09-17T16:57:23.433Z,101001.51
2018-09-17T16:59:52.129Z,101001.97
2018-09-17T17:02:20.519Z,101005.05
2018-09-17T17:04:48.908Z,100999.79
2018-09-17T17:07:17.216Z,101010.61
2018-09-17T17:09:45.553Z,101010.59
2018-09-17T17:12:13.831Z,101012.92
2018-09-17T17:14:42.290Z,101000.70
2018-09-17T17:17:10.624Z,101002.80
2018-09-17T17:19:38.975Z,101003.78
2018-09-17T17:22:07.555Z,101002.66
2018-09-17T17:24:36.103Z,100996.72
2018-09-17T17:27:04.401Z,100996.00
2018-09-17T17:29:32.733Z,100997.27
2018-09-17T17:32:01.151Z,101001.03
2018-09-17T17:34:29.470Z,100997.80
2018-09-17T17:36:57.752Z,100994.11
2018-09-17T17:39:26.129Z,101000.67
2018-09-17T17:41:54.432Z,100997.52
2018-09-17T17:44:23.186Z,100989.17
2018-09-17T17:46:51.454Z,100994.52
2018-09-17T17:49:19.819Z,100986.70
2018-09-17T17:51:48.167Z,100991.02
2018-09-17T17:54:16.435Z,100993.58
2018-09-17T17:56:44.756Z,100993.70
2018-09-17T17:59:13.097Z,100994.00
2018-09-17T18:01:41.390Z,100995.86
2018-09-17T18:04:10.226Z,100993.70
2018-09-17T18:06:38.760Z,100990.84
2018-09-17T18:09:09.397Z,100992.29
2018-09-17T18:11:38.066Z,100990.72
2018-09-17T18:14:06.657Z,100989.48
2018-09-17T18:16:35.072Z,100986.65
2018-09-17T18:19:03.678Z,100984.19
2018-09-17T18:21:32.368Z,100985.27
2018-09-17T18:24:00.768Z,100989.35
2018-09-17T18:26:29.778Z,100986.75
2018-09-17T18:28:58.111Z,100986.91
2018-09-17T18:31:26.428Z,100986.80
2018-09-17T18:33:54.801Z,100979.33
2018-09-17T18:36:23.287Z,100983.73
2018-09-17T18:38:51.691Z,100985.56
2018-09-17T18:41:19.916Z,100983.89
2018-09-17T18:43:48.205Z,100983.20
2018-09-17T18:46:16.548Z,100978.04
2018-09-17T18:48:44.881Z,100979.02
2018-09-17T18:51:13.245Z,100979.08
2018-09-17T18:53:41.596Z,100981.12
2018-09-17T18:56:09.903Z,100988.83
2018-09-17T18:58:38.216Z,100985.69
2018-09-17T19:01:06.717Z,100978.41
2018-09-17T19:03:35.066Z,100978.28
2018-09-17T19:06:03.449Z,100977.85
2018-09-17T19:08:31.764Z,100978.00
2018-09-17T19:11:00.157Z,100979.80
2018-09-17T19:13:28.510Z,100976.30
2018-09-17T19:15:57.905Z,100972.25
2018-09-17T19:18:26.267Z,100972.70
2018-09-17T19:20:54.803Z,100975.78
2018-09-17T19:23:28.241Z,100975.20
2018-09-17T19:25:56.860Z,100979.34
2018-09-17T19:28:30.508Z,100975.45
2018-09-17T19:30:58.858Z,100974.76
2018-09-17T19:33:27.156Z,100975.56
2018-09-17T19:35:55.515Z,100980.30
2018-09-17T19:38:29.120Z,100965.89
2018-09-17T19:40:57.404Z,100968.31
2018-09-17T19:43:25.758Z,100971.66
2018-09-17T19:45:59.508Z,100963.22
2018-09-17T19:48:27.880Z,100965.37
2018-09-17T19:51:01.542Z,100963.53
2018-09-17T19:53:29.866Z,100961.72
2018-09-17T19:55:58.230Z,100958.41
2018-09-17T19:58:31.734Z,100958.58
2018-09-17T20:01:00.135Z,100953.45
2018-09-17T20:03:28.366Z,100954.64
2018-09-17T20:06:01.983Z,100949.52
2018-09-17T20:08:30.278Z,100949.75
2018-09-17T20:10:58.570Z,100953.48
2018-09-17T20:13:26.864Z,100953.06
2018-09-17T20:15:55.231Z,100952.33
2018-09-17T20:18:23.539Z,100953.73
2018-09-17T20:20:51.884Z,100957.83
2018-09-17T20:23:20.169Z,100954.42
2018-09-17T20:25:48.456Z,100954.98
2018-09-17T20:28:16.782Z,100946.40
2018-09-17T20:30:45.115Z,100943.79
2018-09-17T20:33:13.412Z,100944.15
2018-09-17T20:35:41.816Z,100947.77
2018-09-17T20:38:10.107Z,100945.48
2018-09-17T20:40:41.069Z,100940.36
2018-09-17T20:43:09.588Z,100940.21
2018-09-17T20:45:37.907Z,100941.39
2018-09-17T20:48:06.296Z,100941.24
2018-09-17T20:50:34.573Z,100939.29
2018-09-17T20:53:03.324Z,100945.78
2018-09-17T20:55:31.738Z,100942.20
2018-09-17T20:58:00.012Z,100936.63
2018-09-17T21:00:31.171Z,100940.34
2018-09-17T21:02:59.420Z,100937.39
2018-09-17T21:05:27.737Z,100931.30
2018-09-17T21:07:56.051Z,100935.28
2018-09-17T21:11:27.620Z,100939.89
2018-09-17T21:13:55.948Z,100935.79
2018-09-17T21:16:24.427Z,100937.12
2018-09-17T21:18:52.746Z,100938.50
2018-09-17T21:21:21.192Z,100936.54
2018-09-17T21:23:49.503Z,100935.06
2018-09-17T21:26:17.798Z,100933.07
2018-09-17T21:28:46.154Z,100926.78
2018-09-17T21:31:14.490Z,100931.39
2018-09-17T21:33:42.878Z,100921.59
2018-09-17T21:36:11.124Z,100914.44
2018-09-17T21:38:39.407Z,100910.14
2018-09-17T21:41:07.761Z,100911.98
2018-09-17T21:43:36.060Z,100909.49
2018-09-17T21:46:04.365Z,100910.05
2018-09-17T21:48:32.629Z,100911.77
2018-09-17T21:51:01.026Z,100916.13
2018-09-17T21:53:29.308Z,100914.18
2018-09-17T21:55:57.695Z,100910.39
2018-09-17T21:58:25.933Z,100912.07
2018-09-17T22:01:00.984Z,100915.27
2018-09-17T22:03:30.603Z,100909.83
2018-09-17T22:05:59.300Z,100908.03
2018-09-17T22:08:27.784Z,100917.63
2018-09-17T22:10:56.163Z,100908.03
2018-09-17T22:13:24.461Z,100909.36
2018-09-17T22:15:52.743Z,100908.19
2018-09-17T22:18:21.201Z,100900.70
2018-09-17T22:20:49.516Z,100905.66
2018-09-17T22:23:17.828Z,100905.97
2018-09-17T22:25:46.126Z,100908.13
2018-09-17T22:28:14.445Z,100900.01
2018-09-17T22:30:42.727Z,100899.38
2018-09-17T22:33:11.050Z,100904.69
2018-09-17T22:35:39.331Z,100893.09
2018-09-17T22:38:07.853Z,100894.77
2018-09-17T22:40:36.072Z,100892.78
2018-09-17T22:43:04.373Z,100890.82
2018-09-17T22:45:32.658Z,100893.70
2018-09-17T22:48:00.966Z,100883.59
2018-09-17T22:50:29.896Z,100880.97
2018-09-17T22:52:58.349Z,100882.52
2018-09-17T22:55:26.611Z,100882.35
2018-09-17T22:57:54.910Z,100876.06
2018-09-17T23:00:23.139Z,100878.05
2018-09-17T23:02:51.420Z,100876.09
2018-09-17T23:05:19.692Z,100873.95
2018-09-17T23:07:47.989Z,100872.97
2018-09-17T23:10:16.337Z,100869.48
2018-09-17T23:12:44.601Z,100873.17
2018-09-17T23:15:12.886Z,100867.05
2018-09-17T23:17:41.302Z,100867.89
2018-09-17T23:20:09.553Z,100860.97
2018-09-17T23:22:37.835Z,100860.30
2018-09-17T23:25:06.192Z,100863.77
2018-09-17T23:27:34.471Z,100861.63
2018-09-17T23:30:02.841Z,100849.88
2018-09-17T23:32:31.081Z,100848.72
2018-09-17T23:34:59.418Z,100854.36
2018-09-17T23:37:27.684Z,100848.39
2018-09-17T23:39:55.979Z,100840.77
2018-09-17T23:42:24.297Z,100842.91
2018-09-17T23:44:52.564Z,100835.66
2018-09-17T23:47:20.840Z,100837.31
2018-09-17T23:49:49.098Z,100838.48
2018-09-17T23:52:17.359Z,100834.17
2018-09-17T23:54:45.703Z,100833.06
2018-09-17T23:57:13.991Z,100831.76
2018-09-17T23:59:42.280Z,100832.41
